PWSweather.com
Personal Weather Stations
Station Observations
WATERF01
WaterfordIE

WaterfordIE

Lat: 52.2412507, Lon: -7.1414691

Elevation: 65

Station Type: Davis Vantage Vue

Latest ConditionsUpdated 4:10:02 PM GMT Thursday, Mar 23, 2017
Currently Today's Max Today's Min Today's Average
Temperature 52.4°F11.3°C 53.0°F11.7°C 41.2°F5.1°C 45.9°F7.7°C
Dew Point 41.4°F5.2°C 42.2°F5.7°C 36.5°F2.5°C 38.8°F3.8°C
Winds 5.8 mph ENE9.3 kmh ENE 10.4 mph N16.7 kmh N - 6.2 mph 10.0 kmh
Wind Gusts 13.8 mph22.2 kmh 20.7 mph33.3 kmh - -
Humidity 66% 84% 62% 77%
Pressure 30.17 in1021.7 mb 30.17 in1021.7 mb 29.89 in1012.2 mb -
Precipitation - 0.01 in0.3 mm - -
Hour Temp Dew Point Humidity Winds Wind Gusts Pressure Precip Precip Rate Daily Precip Total
04:10 PM 52.4°F11.3°C 41.4°F5.2°C 66% 5.8 mph ENE9.3 kmh ENE 13.8 mph22.2 kmh 30.17 in1021.7 mb - 0.00 in0.0 mm 0.01 in0.3 mm
04:00 PM 52.4°F11.3°C 42.2°F5.7°C 68% 4.6 mph NNE7.4 kmh NNE 9.2 mph14.8 kmh 30.16 in1021.3 mb - 0.00 in0.0 mm 0.01 in0.3 mm
03:50 PM 52.5°F11.4°C 41.9°F5.5°C 67% 5.8 mph E9.3 kmh E 11.5 mph18.5 kmh 30.16 in1021.3 mb - 0.00 in0.0 mm 0.01 in0.3 mm
03:40 PM 52.3°F11.3°C 41.7°F5.4°C 67% 5.8 mph ENE9.3 kmh ENE 13.8 mph22.2 kmh 30.16 in1021.3 mb - 0.00 in0.0 mm 0.01 in0.3 mm
03:30 PM 52.6°F11.4°C 41.9°F5.5°C 67% 5.8 mph E9.3 kmh E 11.5 mph18.5 kmh 30.16 in1021.3 mb - 0.00 in0.0 mm 0.01 in0.3 mm
03:20 PM 52.5°F11.4°C 41.9°F5.5°C 67% 5.8 mph E9.3 kmh E 13.8 mph22.2 kmh 30.16 in1021.3 mb - 0.00 in0.0 mm 0.01 in0.3 mm
03:10 PM 52.7°F11.5°C 42.0°F5.6°C 67% 5.8 mph ENE9.3 kmh ENE 11.5 mph18.5 kmh 30.15 in1021.0 mb - 0.00 in0.0 mm 0.01 in0.3 mm
03:00 PM 52.6°F11.4°C 41.6°F5.3°C 66% 5.8 mph E9.3 kmh E 11.5 mph18.5 kmh 30.15 in1021.0 mb - 0.00 in0.0 mm 0.01 in0.3 mm
02:50 PM 52.4°F11.3°C 41.7°F5.4°C 67% 9.2 mph E14.8 kmh E 18.4 mph29.6 kmh 30.15 in1021.0 mb - 0.00 in0.0 mm 0.01 in0.3 mm
02:40 PM 51.7°F10.9°C 41.5°F5.3°C 68% 5.8 mph ENE9.3 kmh ENE 9.2 mph14.8 kmh 30.14 in1020.7 mb - 0.00 in0.0 mm 0.01 in0.3 mm
02:30 PM 52.3°F11.3°C 42.0°F5.6°C 68% 6.9 mph E11.1 kmh E 12.7 mph20.4 kmh 30.14 in1020.7 mb - 0.00 in0.0 mm 0.01 in0.3 mm
02:20 PM 51.9°F11.1°C 41.7°F5.4°C 68% 6.9 mph E11.1 kmh E 11.5 mph18.5 kmh 30.14 in1020.7 mb - 0.00 in0.0 mm 0.01 in0.3 mm
02:10 PM 52.0°F11.1°C 41.4°F5.2°C 67% 4.6 mph NE7.4 kmh NE 11.5 mph18.5 kmh 30.14 in1020.7 mb - 0.00 in0.0 mm 0.01 in0.3 mm
02:00 PM 52.0°F11.1°C 40.6°F4.8°C 65% 9.2 mph E14.8 kmh E 16.1 mph25.9 kmh 30.13 in1020.3 mb - 0.00 in0.0 mm 0.01 in0.3 mm
01:50 PM 52.2°F11.2°C 40.4°F4.7°C 64% 6.9 mph ENE11.1 kmh ENE 13.8 mph22.2 kmh 30.13 in1020.3 mb - 0.00 in0.0 mm 0.01 in0.3 mm
01:40 PM 52.5°F11.4°C 40.3°F4.6°C 63% 8.1 mph E13.0 kmh E 13.8 mph22.2 kmh 30.13 in1020.3 mb - 0.00 in0.0 mm 0.01 in0.3 mm
01:30 PM 53.0°F11.7°C 40.3°F4.6°C 62% 6.9 mph ENE11.1 kmh ENE 15.0 mph24.1 kmh 30.12 in1020.0 mb - 0.00 in0.0 mm 0.01 in0.3 mm
01:20 PM 53.0°F11.7°C 40.8°F4.9°C 63% 6.9 mph E11.1 kmh E 13.8 mph22.2 kmh 30.12 in1020.0 mb - 0.00 in0.0 mm 0.01 in0.3 mm
01:10 PM 52.2°F11.2°C 40.0°F4.4°C 63% 5.8 mph E9.3 kmh E 11.5 mph18.5 kmh 30.12 in1020.0 mb - 0.00 in0.0 mm 0.01 in0.3 mm
01:00 PM 52.4°F11.3°C 40.2°F4.6°C 63% 6.9 mph E11.1 kmh E 16.1 mph25.9 kmh 30.12 in1020.0 mb - 0.00 in0.0 mm 0.01 in0.3 mm
12:50 PM 52.7°F11.5°C 41.3°F5.2°C 65% 6.9 mph NNW11.1 kmh NNW 15.0 mph24.1 kmh 30.12 in1020.0 mb - 0.00 in0.0 mm 0.01 in0.3 mm
12:40 PM 52.3°F11.3°C 40.9°F4.9°C 65% 5.8 mph E9.3 kmh E 11.5 mph18.5 kmh 30.12 in1020.0 mb - 0.00 in0.0 mm 0.01 in0.3 mm
12:30 PM 50.8°F10.4°C 40.2°F4.6°C 67% 5.8 mph E9.3 kmh E 11.5 mph18.5 kmh 30.12 in1020.0 mb - 0.00 in0.0 mm 0.01 in0.3 mm
12:20 PM 51.3°F10.7°C 40.7°F4.8°C 67% 6.9 mph NE11.1 kmh NE 16.1 mph25.9 kmh 30.12 in1020.0 mb - 0.00 in0.0 mm 0.01 in0.3 mm
12:10 PM 50.8°F10.4°C 40.3°F4.6°C 67% 5.8 mph E9.3 kmh E 12.7 mph20.4 kmh 30.12 in1020.0 mb - 0.00 in0.0 mm 0.01 in0.3 mm
12:00 PM 50.9°F10.5°C 40.7°F4.8°C 68% 8.1 mph NNE13.0 kmh NNE 16.1 mph25.9 kmh 30.12 in1020.0 mb - 0.00 in0.0 mm 0.01 in0.3 mm
11:50 AM 51.6°F10.9°C 41.4°F5.2°C 68% 9.2 mph E14.8 kmh E 19.6 mph31.5 kmh 30.12 in1020.0 mb - 0.00 in0.0 mm 0.01 in0.3 mm
11:40 AM 50.6°F10.3°C 41.5°F5.3°C 71% 6.9 mph E11.1 kmh E 13.8 mph22.2 kmh 30.12 in1020.0 mb - 0.00 in0.0 mm 0.01 in0.3 mm
11:30 AM 50.2°F10.1°C 41.2°F5.1°C 71% 6.9 mph NE11.1 kmh NE 13.8 mph22.2 kmh 30.11 in1019.6 mb - 0.00 in0.0 mm 0.01 in0.3 mm
11:20 AM 49.5°F9.7°C 41.2°F5.1°C 73% 6.9 mph SE11.1 kmh SE 9.2 mph14.8 kmh 30.11 in1019.6 mb - 0.00 in0.0 mm 0.01 in0.3 mm
11:10 AM 48.7°F9.3°C 40.5°F4.7°C 73% 5.8 mph E9.3 kmh E 11.5 mph18.5 kmh 30.11 in1019.6 mb - 0.00 in0.0 mm 0.01 in0.3 mm
11:00 AM 49.3°F9.6°C 40.7°F4.8°C 72% 8.1 mph ENE13.0 kmh ENE 15.0 mph24.1 kmh 30.10 in1019.3 mb - 0.00 in0.0 mm 0.01 in0.3 mm
10:50 AM 49.0°F9.4°C 40.4°F4.7°C 72% 6.9 mph NE11.1 kmh NE 11.5 mph18.5 kmh 30.10 in1019.3 mb - 0.00 in0.0 mm 0.01 in0.3 mm
10:40 AM 49.0°F9.4°C 40.4°F4.7°C 72% 9.2 mph E14.8 kmh E 19.6 mph31.5 kmh 30.10 in1019.3 mb - 0.00 in0.0 mm 0.01 in0.3 mm
10:30 AM 48.8°F9.3°C 40.2°F4.6°C 72% 4.6 mph E7.4 kmh E 8.1 mph13.0 kmh 30.10 in1019.3 mb - 0.00 in0.0 mm 0.01 in0.3 mm
10:20 AM 48.8°F9.3°C 39.8°F4.3°C 71% 5.8 mph E9.3 kmh E 13.8 mph22.2 kmh 30.09 in1019.0 mb - 0.00 in0.0 mm 0.01 in0.3 mm
10:10 AM 48.7°F9.3°C 40.7°F4.8°C 74% 8.1 mph ENE13.0 kmh ENE 13.8 mph22.2 kmh 30.09 in1019.0 mb - 0.00 in0.0 mm 0.01 in0.3 mm
10:00 AM 47.7°F8.7°C 41.2°F5.1°C 78% 4.6 mph E7.4 kmh E 8.1 mph13.0 kmh 30.09 in1019.0 mb - 0.00 in0.0 mm 0.01 in0.3 mm
09:50 AM 47.7°F8.7°C 41.2°F5.1°C 78% 5.8 mph NW9.3 kmh NW 11.5 mph18.5 kmh 30.08 in1018.6 mb - 0.00 in0.0 mm 0.01 in0.3 mm
09:40 AM 47.1°F8.4°C 40.6°F4.8°C 78% 4.6 mph E7.4 kmh E 8.1 mph13.0 kmh 30.08 in1018.6 mb - 0.00 in0.0 mm 0.01 in0.3 mm
09:30 AM 46.7°F8.2°C 40.5°F4.7°C 79% 4.6 mph SE7.4 kmh SE 8.1 mph13.0 kmh 30.08 in1018.6 mb - 0.00 in0.0 mm 0.01 in0.3 mm
09:20 AM 46.3°F7.9°C 40.8°F4.9°C 81% 2.3 mph W3.7 kmh W 5.8 mph9.3 kmh 30.07 in1018.3 mb - 0.00 in0.0 mm 0.01 in0.3 mm
09:10 AM 45.3°F7.4°C 40.2°F4.6°C 82% 4.6 mph N7.4 kmh N 12.7 mph20.4 kmh 30.07 in1018.3 mb - 0.00 in0.0 mm 0.01 in0.3 mm
09:00 AM 44.2°F6.8°C 39.4°F4.1°C 83% 3.5 mph NW5.6 kmh NW 8.1 mph13.0 kmh 30.07 in1018.3 mb - 0.00 in0.0 mm 0.01 in0.3 mm
08:50 AM 43.4°F6.3°C 38.9°F3.8°C 84% 4.6 mph NNW7.4 kmh NNW 6.9 mph11.1 kmh 30.07 in1018.3 mb - 0.00 in0.0 mm 0.01 in0.3 mm
08:40 AM 42.9°F6.1°C 38.4°F3.6°C 84% 4.6 mph NNW7.4 kmh NNW 8.1 mph13.0 kmh 30.06 in1017.9 mb - 0.00 in0.0 mm 0.01 in0.3 mm
08:30 AM 42.9°F6.1°C 38.4°F3.6°C 84% 5.8 mph N9.3 kmh N 13.8 mph22.2 kmh 30.06 in1017.9 mb - 0.00 in0.0 mm 0.01 in0.3 mm
08:20 AM 42.9°F6.1°C 38.4°F3.6°C 84% 3.5 mph N5.6 kmh N 8.1 mph13.0 kmh 30.05 in1017.6 mb - 0.00 in0.0 mm 0.01 in0.3 mm
08:10 AM 42.9°F6.1°C 38.1°F3.4°C 83% 4.6 mph NNW7.4 kmh NNW 11.5 mph18.5 kmh 30.05 in1017.6 mb - 0.00 in0.0 mm 0.01 in0.3 mm
08:00 AM 42.7°F5.9°C 37.9°F3.3°C 83% 2.3 mph NNW3.7 kmh NNW 4.6 mph7.4 kmh 30.05 in1017.6 mb - 0.00 in0.0 mm 0.01 in0.3 mm
07:50 AM 42.7°F5.9°C 37.9°F3.3°C 83% 4.6 mph N7.4 kmh N 9.2 mph14.8 kmh 30.04 in1017.3 mb - 0.00 in0.0 mm 0.01 in0.3 mm
07:40 AM 42.6°F5.9°C 37.8°F3.2°C 83% 2.3 mph NW3.7 kmh NW 8.1 mph13.0 kmh 30.04 in1017.3 mb - 0.00 in0.0 mm 0.01 in0.3 mm
07:30 AM 42.5°F5.8°C 37.7°F3.2°C 83% 4.6 mph NNW7.4 kmh NNW 13.8 mph22.2 kmh 30.04 in1017.3 mb - 0.00 in0.0 mm 0.01 in0.3 mm
07:20 AM 42.3°F5.7°C 37.5°F3.1°C 83% 5.8 mph NNW9.3 kmh NNW 13.8 mph22.2 kmh 30.03 in1016.9 mb - 0.00 in0.0 mm 0.01 in0.3 mm
07:10 AM 42.1°F5.6°C 37.3°F2.9°C 83% 5.8 mph NNW9.3 kmh NNW 11.5 mph18.5 kmh 30.03 in1016.9 mb - 0.00 in0.0 mm 0.01 in0.3 mm
07:00 AM 42.0°F5.6°C 37.2°F2.9°C 83% 6.9 mph NNW11.1 kmh NNW 11.5 mph18.5 kmh 30.02 in1016.6 mb - 0.00 in0.0 mm 0.01 in0.3 mm
06:50 AM 41.9°F5.5°C 37.1°F2.8°C 83% 3.5 mph NW5.6 kmh NW 6.9 mph11.1 kmh 30.02 in1016.6 mb - 0.00 in0.0 mm 0.01 in0.3 mm
06:40 AM 41.7°F5.4°C 36.9°F2.7°C 83% 9.2 mph N14.8 kmh N 13.8 mph22.2 kmh 30.01 in1016.3 mb - 0.00 in0.0 mm 0.01 in0.3 mm
06:30 AM 41.7°F5.4°C 36.9°F2.7°C 83% 5.8 mph NNW9.3 kmh NNW 12.7 mph20.4 kmh 30.01 in1016.3 mb - 0.00 in0.0 mm 0.01 in0.3 mm
06:20 AM 41.7°F5.4°C 36.9°F2.7°C 83% 2.3 mph N3.7 kmh N 8.1 mph13.0 kmh 30.01 in1016.3 mb - 0.00 in0.0 mm 0.01 in0.3 mm
06:10 AM 41.7°F5.4°C 36.9°F2.7°C 83% 5.8 mph N9.3 kmh N 13.8 mph22.2 kmh 30.00 in1015.9 mb - 0.00 in0.0 mm 0.01 in0.3 mm
06:00 AM 41.8°F5.4°C 36.7°F2.6°C 82% 6.9 mph NNW11.1 kmh NNW 16.1 mph25.9 kmh 29.99 in1015.6 mb - 0.00 in0.0 mm 0.01 in0.3 mm
05:50 AM 41.9°F5.5°C 36.8°F2.7°C 82% 4.6 mph NW7.4 kmh NW 8.1 mph13.0 kmh 29.99 in1015.6 mb - 0.00 in0.0 mm 0.01 in0.3 mm
05:40 AM 42.0°F5.6°C 36.9°F2.7°C 82% 4.6 mph NNW7.4 kmh NNW 9.2 mph14.8 kmh 29.99 in1015.6 mb - 0.00 in0.0 mm 0.01 in0.3 mm
05:30 AM 42.0°F5.6°C 36.9°F2.7°C 82% 6.9 mph N11.1 kmh N 15.0 mph24.1 kmh 29.98 in1015.2 mb - 0.00 in0.0 mm 0.01 in0.3 mm
05:20 AM 42.0°F5.6°C 36.9°F2.7°C 82% 5.8 mph NW9.3 kmh NW 13.8 mph22.2 kmh 29.98 in1015.2 mb - 0.00 in0.0 mm 0.01 in0.3 mm
05:10 AM 42.0°F5.6°C 36.9°F2.7°C 82% 6.9 mph NNW11.1 kmh NNW 15.0 mph24.1 kmh 29.98 in1015.2 mb - 0.00 in0.0 mm 0.01 in0.3 mm
05:00 AM 42.1°F5.6°C 37.0°F2.8°C 82% 8.1 mph NW13.0 kmh NW 16.1 mph25.9 kmh 29.97 in1014.9 mb - 0.00 in0.0 mm 0.01 in0.3 mm
04:50 AM 42.1°F5.6°C 37.0°F2.8°C 82% 9.2 mph NNW14.8 kmh NNW 19.6 mph31.5 kmh 29.97 in1014.9 mb - 0.00 in0.0 mm 0.01 in0.3 mm
04:40 AM 42.0°F5.6°C 36.9°F2.7°C 82% 5.8 mph N9.3 kmh N 11.5 mph18.5 kmh 29.97 in1014.9 mb - 0.00 in0.0 mm 0.01 in0.3 mm
04:30 AM 42.0°F5.6°C 36.9°F2.7°C 82% 4.6 mph N7.4 kmh N 13.8 mph22.2 kmh 29.96 in1014.6 mb - 0.00 in0.0 mm 0.01 in0.3 mm
04:20 AM 42.0°F5.6°C 36.6°F2.6°C 81% 6.9 mph NNW11.1 kmh NNW 12.7 mph20.4 kmh 29.96 in1014.6 mb - 0.00 in0.0 mm 0.01 in0.3 mm
04:10 AM 42.0°F5.6°C 36.6°F2.6°C 81% 5.8 mph NNW9.3 kmh NNW 11.5 mph18.5 kmh 29.96 in1014.6 mb - 0.00 in0.0 mm 0.01 in0.3 mm
04:00 AM 42.0°F5.6°C 36.9°F2.7°C 82% 6.9 mph NNW11.1 kmh NNW 15.0 mph24.1 kmh 29.96 in1014.6 mb - 0.00 in0.0 mm 0.01 in0.3 mm
03:50 AM 42.0°F5.6°C 36.9°F2.7°C 82% 6.9 mph NNW11.1 kmh NNW 12.7 mph20.4 kmh 29.96 in1014.6 mb - 0.00 in0.0 mm 0.01 in0.3 mm
03:40 AM 41.9°F5.5°C 36.8°F2.7°C 82% 5.8 mph N9.3 kmh N 12.7 mph20.4 kmh 29.95 in1014.2 mb - 0.00 in0.0 mm 0.01 in0.3 mm
03:30 AM 41.9°F5.5°C 36.8°F2.7°C 82% 5.8 mph NNW9.3 kmh NNW 11.5 mph18.5 kmh 29.95 in1014.2 mb - 0.00 in0.0 mm 0.01 in0.3 mm
03:20 AM 41.9°F5.5°C 36.8°F2.7°C 82% 8.1 mph NNW13.0 kmh NNW 16.1 mph25.9 kmh 29.95 in1014.2 mb - 0.00 in0.0 mm 0.01 in0.3 mm
03:10 AM 42.0°F5.6°C 36.9°F2.7°C 82% 9.2 mph N14.8 kmh N 20.7 mph33.3 kmh 29.95 in1014.2 mb - 0.00 in0.0 mm 0.01 in0.3 mm
03:00 AM 41.9°F5.5°C 36.9°F2.7°C 82% 5.8 mph NNW9.3 kmh NNW 9.2 mph14.8 kmh 29.95 in1014.2 mb - 0.00 in0.0 mm 0.01 in0.3 mm
02:50 AM 41.9°F5.5°C 36.8°F2.7°C 82% 9.2 mph N14.8 kmh N 15.0 mph24.1 kmh 29.94 in1013.9 mb - 0.00 in0.0 mm 0.01 in0.3 mm
02:40 AM 41.9°F5.5°C 37.1°F2.8°C 83% 6.9 mph NNW11.1 kmh NNW 12.7 mph20.4 kmh 29.94 in1013.9 mb - 0.00 in0.0 mm 0.01 in0.3 mm
02:30 AM 41.8°F5.4°C 37.0°F2.8°C 83% 5.8 mph NNW9.3 kmh NNW 11.5 mph18.5 kmh 29.93 in1013.5 mb - 0.00 in0.0 mm 0.01 in0.3 mm
02:20 AM 41.8°F5.4°C 37.0°F2.8°C 83% 4.6 mph NNW7.4 kmh NNW 8.1 mph13.0 kmh 29.93 in1013.5 mb - 0.00 in0.0 mm 0.01 in0.3 mm
02:10 AM 41.7°F5.4°C 36.9°F2.7°C 83% 6.9 mph N11.1 kmh N 11.5 mph18.5 kmh 29.93 in1013.5 mb - 0.00 in0.0 mm 0.01 in0.3 mm
02:00 AM 41.5°F5.3°C 37.0°F2.8°C 84% 6.9 mph N11.1 kmh N 11.5 mph18.5 kmh 29.92 in1013.2 mb - 0.00 in0.0 mm 0.01 in0.3 mm
01:50 AM 41.2°F5.1°C 36.7°F2.6°C 84% 5.8 mph NNW9.3 kmh NNW 8.1 mph13.0 kmh 29.92 in1013.2 mb - 0.00 in0.0 mm 0.01 in0.3 mm
01:40 AM 41.2°F5.1°C 36.7°F2.6°C 84% 6.9 mph NNW11.1 kmh NNW 13.8 mph22.2 kmh 29.92 in1013.2 mb - 0.00 in0.0 mm 0.01 in0.3 mm
01:30 AM 41.3°F5.2°C 36.8°F2.7°C 84% 8.1 mph NNW13.0 kmh NNW 15.0 mph24.1 kmh 29.92 in1013.2 mb - 0.00 in0.0 mm 0.01 in0.3 mm
01:20 AM 41.5°F5.3°C 36.8°F2.7°C 83% 3.5 mph NNW5.6 kmh NNW 9.2 mph14.8 kmh 29.92 in1013.2 mb - 0.00 in0.0 mm 0.01 in0.3 mm
01:10 AM 41.7°F5.4°C 36.9°F2.7°C 83% 4.6 mph NNW7.4 kmh NNW 11.5 mph18.5 kmh 29.92 in1013.2 mb - 0.00 in0.0 mm 0.01 in0.3 mm
01:00 AM 41.7°F5.4°C 36.6°F2.6°C 82% 8.1 mph NNW13.0 kmh NNW 11.5 mph18.5 kmh 29.91 in1012.9 mb - 0.00 in0.0 mm 0.01 in0.3 mm
12:50 AM 41.6°F5.3°C 36.5°F2.5°C 82% 8.1 mph NNW13.0 kmh NNW 16.1 mph25.9 kmh 29.90 in1012.5 mb - 0.00 in0.0 mm 0.01 in0.3 mm
12:40 AM 41.7°F5.4°C 36.6°F2.6°C 82% 10.4 mph N16.7 kmh N 20.7 mph33.3 kmh 29.90 in1012.5 mb - 0.01 in0.3 mm 0.01 in0.3 mm
12:30 AM 41.8°F5.4°C 36.7°F2.6°C 82% 5.8 mph NNW9.3 kmh NNW 13.8 mph22.2 kmh 29.90 in1012.5 mb - 0.00 in0.0 mm 0.00 in0.0 mm
12:20 AM 41.9°F5.5°C 36.8°F2.7°C 82% 8.1 mph NNW13.0 kmh NNW 15.0 mph24.1 kmh 29.90 in1012.5 mb - 0.00 in0.0 mm 0.00 in0.0 mm
12:10 AM 41.9°F5.5°C 36.8°F2.7°C 82% 8.1 mph NNW13.0 kmh NNW 15.0 mph24.1 kmh 29.89 in1012.2 mb - 0.00 in0.0 mm 0.00 in0.0 mm
12:00 AM 41.9°F5.5°C 36.8°F2.7°C 82% 8.1 mph NNW13.0 kmh NNW 13.8 mph22.2 kmh 29.89 in1012.2 mb - 0.00 in0.0 mm 0.00 in0.0 mm